sensor_id;sensor_type;location;lat;lon;timestamp;temperature;humidity
13203;DHT22;6666;51.626;7.530;2023-08-12T00:01:22;20.50;99.90
13203;DHT22;6666;51.626;7.530;2023-08-12T00:03:53;20.50;99.90
13203;DHT22;6666;51.626;7.530;2023-08-12T00:06:21;20.40;99.90
13203;DHT22;6666;51.626;7.530;2023-08-12T00:08:49;20.40;99.90
13203;DHT22;6666;51.626;7.530;2023-08-12T00:11:17;20.40;99.90
13203;DHT22;6666;51.626;7.530;2023-08-12T00:13:46;20.30;99.90
13203;DHT22;6666;51.626;7.530;2023-08-12T00:16:15;20.30;99.90
13203;DHT22;6666;51.626;7.530;2023-08-12T00:18:43;20.30;99.90
13203;DHT22;6666;51.626;7.530;2023-08-12T00:21:12;20.30;99.90
13203;DHT22;6666;51.626;7.530;2023-08-12T00:23:40;20.30;99.90
13203;DHT22;6666;51.626;7.530;2023-08-12T00:26:10;20.30;99.90
13203;DHT22;6666;51.626;7.530;2023-08-12T00:28:38;20.30;99.90
13203;DHT22;6666;51.626;7.530;2023-08-12T00:31:07;20.30;99.90
13203;DHT22;6666;51.626;7.530;2023-08-12T00:33:37;20.30;99.90
13203;DHT22;6666;51.626;7.530;2023-08-12T00:36:05;20.30;99.90
13203;DHT22;6666;51.626;7.530;2023-08-12T00:38:33;20.30;99.90
13203;DHT22;6666;51.626;7.530;2023-08-12T00:41:01;20.30;99.90
13203;DHT22;6666;51.626;7.530;2023-08-12T00:43:30;20.30;99.90
13203;DHT22;6666;51.626;7.530;2023-08-12T00:45:58;20.20;99.90
13203;DHT22;6666;51.626;7.530;2023-08-12T00:48:27;20.20;99.90
13203;DHT22;6666;51.626;7.530;2023-08-12T00:50:56;20.20;99.90
13203;DHT22;6666;51.626;7.530;2023-08-12T00:53:25;20.20;99.90
13203;DHT22;6666;51.626;7.530;2023-08-12T00:55:53;20.20;99.90
13203;DHT22;6666;51.626;7.530;2023-08-12T00:58:21;20.20;99.90
13203;DHT22;6666;51.626;7.530;2023-08-12T01:00:50;20.20;99.90
13203;DHT22;6666;51.626;7.530;2023-08-12T01:03:18;20.20;99.90
13203;DHT22;6666;51.626;7.530;2023-08-12T01:05:47;20.20;99.90
13203;DHT22;6666;51.626;7.530;2023-08-12T01:08:16;20.10;99.90
13203;DHT22;6666;51.626;7.530;2023-08-12T01:10:46;20.10;99.90
13203;DHT22;6666;51.626;7.530;2023-08-12T01:13:25;20.10;99.90
13203;DHT22;6666;51.626;7.530;2023-08-12T01:15:59;20.10;99.90
13203;DHT22;6666;51.626;7.530;2023-08-12T01:18:30;20.10;99.90
13203;DHT22;6666;51.626;7.530;2023-08-12T01:20:59;20.10;99.90
13203;DHT22;6666;51.626;7.530;2023-08-12T01:23:32;20.10;99.90
13203;DHT22;6666;51.626;7.530;2023-08-12T01:26:00;20.10;99.90
13203;DHT22;6666;51.626;7.530;2023-08-12T01:28:28;20.00;99.90
13203;DHT22;6666;51.626;7.530;2023-08-12T01:31:02;20.00;99.90
13203;DHT22;6666;51.626;7.530;2023-08-12T01:33:38;20.00;99.90
13203;DHT22;6666;51.626;7.530;2023-08-12T01:36:14;20.00;99.90
13203;DHT22;6666;51.626;7.530;2023-08-12T01:38:45;20.00;99.90
13203;DHT22;6666;51.626;7.530;2023-08-12T01:41:15;20.00;99.90
13203;DHT22;6666;51.626;7.530;2023-08-12T01:43:44;20.00;99.90
13203;DHT22;6666;51.626;7.530;2023-08-12T01:46:13;20.00;99.90
13203;DHT22;6666;51.626;7.530;2023-08-12T01:48:41;20.00;99.90
13203;DHT22;6666;51.626;7.530;2023-08-12T01:51:09;20.00;99.90
13203;DHT22;6666;51.626;7.530;2023-08-12T01:53:37;20.00;99.90
13203;DHT22;6666;51.626;7.530;2023-08-12T01:56:07;20.10;99.90
13203;DHT22;6666;51.626;7.530;2023-08-12T01:58:35;20.10;99.90
13203;DHT22;6666;51.626;7.530;2023-08-12T02:01:04;20.00;99.90
13203;DHT22;6666;51.626;7.530;2023-08-12T02:03:32;20.10;99.90
13203;DHT22;6666;51.626;7.530;2023-08-12T02:06:01;20.00;99.90
13203;DHT22;6666;51.626;7.530;2023-08-12T02:08:29;20.00;99.90
13203;DHT22;6666;51.626;7.530;2023-08-12T02:10:58;20.00;99.90
13203;DHT22;6666;51.626;7.530;2023-08-12T02:13:27;20.00;99.90
13203;DHT22;6666;51.626;7.530;2023-08-12T02:15:55;20.00;99.90
13203;DHT22;6666;51.626;7.530;2023-08-12T02:18:23;20.00;99.90
13203;DHT22;6666;51.626;7.530;2023-08-12T02:20:52;20.10;99.90
13203;DHT22;6666;51.626;7.530;2023-08-12T02:23:20;20.00;99.90
13203;DHT22;6666;51.626;7.530;2023-08-12T02:25:48;20.00;99.90
13203;DHT22;6666;51.626;7.530;2023-08-12T02:28:16;20.00;99.90
13203;DHT22;6666;51.626;7.530;2023-08-12T02:30:45;20.00;99.90
13203;DHT22;6666;51.626;7.530;2023-08-12T02:33:13;20.00;99.90
13203;DHT22;6666;51.626;7.530;2023-08-12T02:35:42;20.00;99.90
13203;DHT22;6666;51.626;7.530;2023-08-12T02:38:10;20.00;99.90
13203;DHT22;6666;51.626;7.530;2023-08-12T02:40:38;20.00;99.90
13203;DHT22;6666;51.626;7.530;2023-08-12T02:43:06;20.00;99.90
13203;DHT22;6666;51.626;7.530;2023-08-12T02:45:37;20.00;99.90
13203;DHT22;6666;51.626;7.530;2023-08-12T02:48:07;20.00;99.90
13203;DHT22;6666;51.626;7.530;2023-08-12T02:50:36;20.00;99.90
13203;DHT22;6666;51.626;7.530;2023-08-12T02:53:05;20.00;99.90
13203;DHT22;6666;51.626;7.530;2023-08-12T02:55:33;20.00;99.90
13203;DHT22;6666;51.626;7.530;2023-08-12T02:58:02;20.00;99.90
13203;DHT22;6666;51.626;7.530;2023-08-12T03:00:30;20.00;99.90
13203;DHT22;6666;51.626;7.530;2023-08-12T03:02:58;20.00;99.90
13203;DHT22;6666;51.626;7.530;2023-08-12T03:05:28;20.10;99.90
13203;DHT22;6666;51.626;7.530;2023-08-12T03:07:56;20.00;99.90
13203;DHT22;6666;51.626;7.530;2023-08-12T03:10:28;20.00;99.90
13203;DHT22;6666;51.626;7.530;2023-08-12T03:12:57;20.00;99.90
13203;DHT22;6666;51.626;7.530;2023-08-12T03:15:26;20.00;99.90
13203;DHT22;6666;51.626;7.530;2023-08-12T03:17:56;20.00;99.90
13203;DHT22;6666;51.626;7.530;2023-08-12T03:20:25;20.00;99.90
13203;DHT22;6666;51.626;7.530;2023-08-12T03:22:55;20.00;99.90
13203;DHT22;6666;51.626;7.530;2023-08-12T03:25:23;20.00;99.90
13203;DHT22;6666;51.626;7.530;2023-08-12T03:27:51;20.00;99.90
13203;DHT22;6666;51.626;7.530;2023-08-12T03:30:20;20.00;99.90
13203;DHT22;6666;51.626;7.530;2023-08-12T03:32:49;20.00;99.90
13203;DHT22;6666;51.626;7.530;2023-08-12T03:35:17;20.00;99.90
13203;DHT22;6666;51.626;7.530;2023-08-12T03:37:46;20.00;99.90
13203;DHT22;6666;51.626;7.530;2023-08-12T03:40:16;20.00;99.90
13203;DHT22;6666;51.626;7.530;2023-08-12T03:42:45;20.00;99.90
13203;DHT22;6666;51.626;7.530;2023-08-12T03:45:14;20.00;99.90
13203;DHT22;6666;51.626;7.530;2023-08-12T03:47:43;19.90;99.90
13203;DHT22;6666;51.626;7.530;2023-08-12T03:50:11;20.00;99.90
13203;DHT22;6666;51.626;7.530;2023-08-12T03:52:39;19.90;99.90
13203;DHT22;6666;51.626;7.530;2023-08-12T03:55:08;19.90;99.90
13203;DHT22;6666;51.626;7.530;2023-08-12T03:57:38;19.90;99.90
13203;DHT22;6666;51.626;7.530;2023-08-12T04:00:07;19.90;99.90
13203;DHT22;6666;51.626;7.530;2023-08-12T04:02:40;19.90;99.90
13203;DHT22;6666;51.626;7.530;2023-08-12T04:05:09;19.90;99.90
13203;DHT22;6666;51.626;7.530;2023-08-12T04:07:37;19.90;99.90
13203;DHT22;6666;51.626;7.530;2023-08-12T04:10:06;19.90;99.90
13203;DHT22;6666;51.626;7.530;2023-08-12T04:12:34;19.90;99.90
13203;DHT22;6666;51.626;7.530;2023-08-12T04:15:05;19.80;99.90
13203;DHT22;6666;51.626;7.530;2023-08-12T04:17:34;19.90;99.90
13203;DHT22;6666;51.626;7.530;2023-08-12T04:20:06;19.90;99.90
13203;DHT22;6666;51.626;7.530;2023-08-12T04:22:37;19.90;99.90
13203;DHT22;6666;51.626;7.530;2023-08-12T04:25:06;19.90;99.90
13203;DHT22;6666;51.626;7.530;2023-08-12T04:27:35;19.90;99.90
13203;DHT22;6666;51.626;7.530;2023-08-12T04:30:06;19.90;99.90
13203;DHT22;6666;51.626;7.530;2023-08-12T04:32:35;19.90;99.90
13203;DHT22;6666;51.626;7.530;2023-08-12T04:35:04;19.90;99.90
13203;DHT22;6666;51.626;7.530;2023-08-12T04:37:36;19.90;99.90
13203;DHT22;6666;51.626;7.530;2023-08-12T04:40:06;19.90;99.90
13203;DHT22;6666;51.626;7.530;2023-08-12T04:42:35;19.90;99.90
13203;DHT22;6666;51.626;7.530;2023-08-12T04:45:07;20.00;99.90
13203;DHT22;6666;51.626;7.530;2023-08-12T04:47:35;20.00;99.90
13203;DHT22;6666;51.626;7.530;2023-08-12T04:50:04;20.00;99.90
13203;DHT22;6666;51.626;7.530;2023-08-12T04:52:33;20.00;99.90
13203;DHT22;6666;51.626;7.530;2023-08-12T04:55:02;20.00;99.90
13203;DHT22;6666;51.626;7.530;2023-08-12T04:57:31;20.00;99.90
13203;DHT22;6666;51.626;7.530;2023-08-12T04:59:59;20.00;99.90
13203;DHT22;6666;51.626;7.530;2023-08-12T05:02:29;20.00;99.90
13203;DHT22;6666;51.626;7.530;2023-08-12T05:04:58;20.00;99.90
13203;DHT22;6666;51.626;7.530;2023-08-12T05:07:27;20.00;99.90
13203;DHT22;6666;51.626;7.530;2023-08-12T05:09:55;20.00;99.90
13203;DHT22;6666;51.626;7.530;2023-08-12T05:12:24;20.00;99.90
13203;DHT22;6666;51.626;7.530;2023-08-12T05:14:52;20.00;99.90
13203;DHT22;6666;51.626;7.530;2023-08-12T05:17:20;20.00;99.90
13203;DHT22;6666;51.626;7.530;2023-08-12T05:19:50;20.10;99.90
13203;DHT22;6666;51.626;7.530;2023-08-12T05:22:19;20.00;99.90
13203;DHT22;6666;51.626;7.530;2023-08-12T05:24:47;20.00;99.90
13203;DHT22;6666;51.626;7.530;2023-08-12T05:27:15;20.10;99.90
13203;DHT22;6666;51.626;7.530;2023-08-12T05:29:43;20.00;99.90
13203;DHT22;6666;51.626;7.530;2023-08-12T05:32:13;20.10;99.90
13203;DHT22;6666;51.626;7.530;2023-08-12T05:34:41;20.00;99.90
13203;DHT22;6666;51.626;7.530;2023-08-12T05:37:10;20.10;99.90
13203;DHT22;6666;51.626;7.530;2023-08-12T05:39:38;20.10;99.90
13203;DHT22;6666;51.626;7.530;2023-08-12T05:42:06;20.10;99.90
13203;DHT22;6666;51.626;7.530;2023-08-12T05:44:35;20.10;99.90
13203;DHT22;6666;51.626;7.530;2023-08-12T05:47:03;20.10;99.90
13203;DHT22;6666;51.626;7.530;2023-08-12T05:49:31;20.20;99.90
13203;DHT22;6666;51.626;7.530;2023-08-12T05:51:59;20.20;99.90
13203;DHT22;6666;51.626;7.530;2023-08-12T05:54:29;20.20;99.90
13203;DHT22;6666;51.626;7.530;2023-08-12T05:56:57;20.30;99.90
13203;DHT22;6666;51.626;7.530;2023-08-12T05:59:25;20.30;99.90
13203;DHT22;6666;51.626;7.530;2023-08-12T06:01:54;20.40;99.90
13203;DHT22;6666;51.626;7.530;2023-08-12T06:04:22;20.50;99.90
13203;DHT22;6666;51.626;7.530;2023-08-12T06:06:50;20.50;99.90
13203;DHT22;6666;51.626;7.530;2023-08-12T06:09:18;20.40;99.90
13203;DHT22;6666;51.626;7.530;2023-08-12T06:11:48;20.50;99.90
13203;DHT22;6666;51.626;7.530;2023-08-12T06:14:16;20.60;99.90
13203;DHT22;6666;51.626;7.530;2023-08-12T06:16:44;20.60;99.90
13203;DHT22;6666;51.626;7.530;2023-08-12T06:19:12;20.70;99.90
13203;DHT22;6666;51.626;7.530;2023-08-12T06:21:40;20.70;99.90
13203;DHT22;6666;51.626;7.530;2023-08-12T06:24:08;20.80;99.90
13203;DHT22;6666;51.626;7.530;2023-08-12T06:26:36;20.80;99.90
13203;DHT22;6666;51.626;7.530;2023-08-12T06:29:06;20.80;99.90
13203;DHT22;6666;51.626;7.530;2023-08-12T06:31:34;20.80;99.90
13203;DHT22;6666;51.626;7.530;2023-08-12T06:34:02;20.80;99.90
13203;DHT22;6666;51.626;7.530;2023-08-12T06:36:30;20.80;99.90
13203;DHT22;6666;51.626;7.530;2023-08-12T06:38:59;20.80;99.90
13203;DHT22;6666;51.626;7.530;2023-08-12T06:41:27;20.80;99.90
13203;DHT22;6666;51.626;7.530;2023-08-12T06:43:55;20.80;99.90
13203;DHT22;6666;51.626;7.530;2023-08-12T06:46:25;20.80;99.90
13203;DHT22;6666;51.626;7.530;2023-08-12T06:48:53;20.70;99.90
13203;DHT22;6666;51.626;7.530;2023-08-12T06:51:21;20.70;99.90
13203;DHT22;6666;51.626;7.530;2023-08-12T06:53:49;20.70;99.90
13203;DHT22;6666;51.626;7.530;2023-08-12T06:56:17;20.70;99.90
13203;DHT22;6666;51.626;7.530;2023-08-12T06:58:45;20.70;99.90
13203;DHT22;6666;51.626;7.530;2023-08-12T07:01:13;20.70;99.90
13203;DHT22;6666;51.626;7.530;2023-08-12T07:03:43;20.70;99.90
13203;DHT22;6666;51.626;7.530;2023-08-12T07:06:11;20.70;99.90
13203;DHT22;6666;51.626;7.530;2023-08-12T07:08:40;20.70;99.90
13203;DHT22;6666;51.626;7.530;2023-08-12T07:11:08;20.70;99.90
13203;DHT22;6666;51.626;7.530;2023-08-12T07:13:36;20.80;99.90
13203;DHT22;6666;51.626;7.530;2023-08-12T07:16:04;20.70;99.90
13203;DHT22;6666;51.626;7.530;2023-08-12T07:18:32;20.70;99.90
13203;DHT22;6666;51.626;7.530;2023-08-12T07:21:02;20.70;99.90
13203;DHT22;6666;51.626;7.530;2023-08-12T07:23:31;20.70;99.90
13203;DHT22;6666;51.626;7.530;2023-08-12T07:25:59;20.70;99.90
13203;DHT22;6666;51.626;7.530;2023-08-12T07:28:27;20.70;99.90
13203;DHT22;6666;51.626;7.530;2023-08-12T07:30:55;20.70;99.90
13203;DHT22;6666;51.626;7.530;2023-08-12T07:33:23;20.70;99.90
13203;DHT22;6666;51.626;7.530;2023-08-12T07:35:52;20.70;99.90
13203;DHT22;6666;51.626;7.530;2023-08-12T07:38:21;20.70;99.90
13203;DHT22;6666;51.626;7.530;2023-08-12T07:40:49;20.60;99.90
13203;DHT22;6666;51.626;7.530;2023-08-12T07:43:18;20.50;99.90
13203;DHT22;6666;51.626;7.530;2023-08-12T07:45:50;20.50;99.90
13203;DHT22;6666;51.626;7.530;2023-08-12T07:48:35;20.50;99.90
13203;DHT22;6666;51.626;7.530;2023-08-12T07:51:08;20.50;99.90
13203;DHT22;6666;51.626;7.530;2023-08-12T07:53:38;20.60;99.90
13203;DHT22;6666;51.626;7.530;2023-08-12T07:56:06;20.60;99.90
13203;DHT22;6666;51.626;7.530;2023-08-12T07:58:35;20.60;99.90
13203;DHT22;6666;51.626;7.530;2023-08-12T08:01:03;20.70;99.90
13203;DHT22;6666;51.626;7.530;2023-08-12T08:03:31;20.80;99.90
13203;DHT22;6666;51.626;7.530;2023-08-12T08:06:00;20.80;99.90
13203;DHT22;6666;51.626;7.530;2023-08-12T08:08:28;20.90;99.90
13203;DHT22;6666;51.626;7.530;2023-08-12T08:10:57;21.00;99.90
13203;DHT22;6666;51.626;7.530;2023-08-12T08:13:25;21.00;99.90
13203;DHT22;6666;51.626;7.530;2023-08-12T08:15:54;21.00;99.90
13203;DHT22;6666;51.626;7.530;2023-08-12T08:18:22;21.00;99.90
13203;DHT22;6666;51.626;7.530;2023-08-12T08:20:50;21.10;99.90
13203;DHT22;6666;51.626;7.530;2023-08-12T08:23:18;21.30;99.90
13203;DHT22;6666;51.626;7.530;2023-08-12T08:25:47;21.50;99.90
13203;DHT22;6666;51.626;7.530;2023-08-12T08:28:16;21.70;99.90
13203;DHT22;6666;51.626;7.530;2023-08-12T08:30:44;21.90;99.90
13203;DHT22;6666;51.626;7.530;2023-08-12T08:33:12;22.00;99.90
13203;DHT22;6666;51.626;7.530;2023-08-12T08:35:41;22.10;99.90
13203;DHT22;6666;51.626;7.530;2023-08-12T08:38:09;22.10;99.90
13203;DHT22;6666;51.626;7.530;2023-08-12T08:40:37;22.20;99.90
13203;DHT22;6666;51.626;7.530;2023-08-12T08:43:07;22.30;99.90
13203;DHT22;6666;51.626;7.530;2023-08-12T08:45:37;22.50;99.90
13203;DHT22;6666;51.626;7.530;2023-08-12T08:48:07;22.60;99.90
13203;DHT22;6666;51.626;7.530;2023-08-12T08:50:36;22.70;99.90
13203;DHT22;6666;51.626;7.530;2023-08-12T08:53:06;23.00;99.90
13203;DHT22;6666;51.626;7.530;2023-08-12T08:55:34;23.10;99.90
13203;DHT22;6666;51.626;7.530;2023-08-12T08:58:03;23.10;99.90
13203;DHT22;6666;51.626;7.530;2023-08-12T09:00:32;23.10;99.90
13203;DHT22;6666;51.626;7.530;2023-08-12T09:03:03;23.00;99.90
13203;DHT22;6666;51.626;7.530;2023-08-12T09:05:34;22.70;99.90
13203;DHT22;6666;51.626;7.530;2023-08-12T09:08:04;22.40;99.90
13203;DHT22;6666;51.626;7.530;2023-08-12T09:10:39;22.30;99.90
13203;DHT22;6666;51.626;7.530;2023-08-12T09:13:08;22.10;99.90
13203;DHT22;6666;51.626;7.530;2023-08-12T09:15:37;22.00;99.90
13203;DHT22;6666;51.626;7.530;2023-08-12T09:18:06;21.90;99.90
13203;DHT22;6666;51.626;7.530;2023-08-12T09:20:35;21.90;99.90
13203;DHT22;6666;51.626;7.530;2023-08-12T09:23:04;21.90;99.90
13203;DHT22;6666;51.626;7.530;2023-08-12T09:25:35;21.90;99.90
13203;DHT22;6666;51.626;7.530;2023-08-12T09:28:05;21.90;99.90
13203;DHT22;6666;51.626;7.530;2023-08-12T09:30:33;22.00;99.90
13203;DHT22;6666;51.626;7.530;2023-08-12T09:33:02;22.20;99.90
13203;DHT22;6666;51.626;7.530;2023-08-12T09:35:34;22.30;99.90
13203;DHT22;6666;51.626;7.530;2023-08-12T09:38:03;22.40;99.90
13203;DHT22;6666;51.626;7.530;2023-08-12T09:40:33;22.50;99.90
13203;DHT22;6666;51.626;7.530;2023-08-12T09:43:02;22.70;99.90
13203;DHT22;6666;51.626;7.530;2023-08-12T09:45:31;22.60;99.90
13203;DHT22;6666;51.626;7.530;2023-08-12T09:48:00;22.70;99.90
13203;DHT22;6666;51.626;7.530;2023-08-12T09:50:28;22.80;99.90
13203;DHT22;6666;51.626;7.530;2023-08-12T09:53:00;23.00;99.90
13203;DHT22;6666;51.626;7.530;2023-08-12T09:55:31;22.90;99.90
13203;DHT22;6666;51.626;7.530;2023-08-12T09:58:03;22.70;99.90
13203;DHT22;6666;51.626;7.530;2023-08-12T10:00:33;22.60;99.90
13203;DHT22;6666;51.626;7.530;2023-08-12T10:03:02;22.60;99.90
13203;DHT22;6666;51.626;7.530;2023-08-12T10:05:32;22.50;99.90
13203;DHT22;6666;51.626;7.530;2023-08-12T10:08:03;22.50;99.90
13203;DHT22;6666;51.626;7.530;2023-08-12T10:10:34;22.50;99.90
13203;DHT22;6666;51.626;7.530;2023-08-12T10:13:03;22.50;99.90
13203;DHT22;6666;51.626;7.530;2023-08-12T10:15:34;22.40;99.90
13203;DHT22;6666;51.626;7.530;2023-08-12T10:18:04;22.50;99.90
13203;DHT22;6666;51.626;7.530;2023-08-12T10:20:37;22.40;99.90
13203;DHT22;6666;51.626;7.530;2023-08-12T10:23:08;22.30;99.90
13203;DHT22;6666;51.626;7.530;2023-08-12T10:25:41;22.10;99.90
13203;DHT22;6666;51.626;7.530;2023-08-12T10:28:11;22.00;99.90
13203;DHT22;6666;51.626;7.530;2023-08-12T10:30:40;22.00;99.90
13203;DHT22;6666;51.626;7.530;2023-08-12T10:33:09;22.00;99.90
13203;DHT22;6666;51.626;7.530;2023-08-12T10:35:42;22.10;99.90
13203;DHT22;6666;51.626;7.530;2023-08-12T10:38:14;22.10;99.90
13203;DHT22;6666;51.626;7.530;2023-08-12T10:40:44;22.10;99.90
13203;DHT22;6666;51.626;7.530;2023-08-12T10:43:13;22.30;99.90
13203;DHT22;6666;51.626;7.530;2023-08-12T10:45:43;22.50;99.90
13203;DHT22;6666;51.626;7.530;2023-08-12T10:48:17;22.60;99.90
13203;DHT22;6666;51.626;7.530;2023-08-12T10:50:48;22.70;99.90
13203;DHT22;6666;51.626;7.530;2023-08-12T10:53:25;22.70;99.90
13203;DHT22;6666;51.626;7.530;2023-08-12T10:58:34;22.80;99.90
13203;DHT22;6666;51.626;7.530;2023-08-12T11:01:03;22.90;99.90
13203;DHT22;6666;51.626;7.530;2023-08-12T11:03:36;22.90;99.90
13203;DHT22;6666;51.626;7.530;2023-08-12T11:06:05;23.00;99.90
13203;DHT22;6666;51.626;7.530;2023-08-12T11:08:34;22.80;99.90
13203;DHT22;6666;51.626;7.530;2023-08-12T11:11:19;22.90;99.90
13203;DHT22;6666;51.626;7.530;2023-08-12T11:13:53;22.90;99.90
13203;DHT22;6666;51.626;7.530;2023-08-12T11:16:31;23.00;99.90
13203;DHT22;6666;51.626;7.530;2023-08-12T11:19:00;22.80;99.90
13203;DHT22;6666;51.626;7.530;2023-08-12T11:21:28;22.70;99.90
13203;DHT22;6666;51.626;7.530;2023-08-12T11:24:00;22.90;99.90
13203;DHT22;6666;51.626;7.530;2023-08-12T11:26:29;22.90;99.90
13203;DHT22;6666;51.626;7.530;2023-08-12T11:28:58;22.80;99.90
13203;DHT22;6666;51.626;7.530;2023-08-12T11:31:26;22.80;99.90
13203;DHT22;6666;51.626;7.530;2023-08-12T11:33:54;22.80;99.90
13203;DHT22;6666;51.626;7.530;2023-08-12T11:36:22;22.90;99.90
13203;DHT22;6666;51.626;7.530;2023-08-12T11:38:50;22.90;99.90
13203;DHT22;6666;51.626;7.530;2023-08-12T11:41:22;23.00;99.90
13203;DHT22;6666;51.626;7.530;2023-08-12T11:43:51;22.90;99.90
13203;DHT22;6666;51.626;7.530;2023-08-12T11:46:19;23.00;99.90
13203;DHT22;6666;51.626;7.530;2023-08-12T11:48:47;23.10;99.90
13203;DHT22;6666;51.626;7.530;2023-08-12T11:51:17;23.40;99.90
13203;DHT22;6666;51.626;7.530;2023-08-12T11:53:46;23.30;99.90
13203;DHT22;6666;51.626;7.530;2023-08-12T11:56:14;23.40;99.90
13203;DHT22;6666;51.626;7.530;2023-08-12T11:58:44;23.40;99.90
13203;DHT22;6666;51.626;7.530;2023-08-12T12:01:21;23.40;99.90
13203;DHT22;6666;51.626;7.530;2023-08-12T12:03:51;23.20;99.90
13203;DHT22;6666;51.626;7.530;2023-08-12T12:06:30;23.10;99.90
13203;DHT22;6666;51.626;7.530;2023-08-12T12:09:03;23.10;99.90
13203;DHT22;6666;51.626;7.530;2023-08-12T12:11:32;23.00;99.90
13203;DHT22;6666;51.626;7.530;2023-08-12T12:14:03;23.10;99.90
13203;DHT22;6666;51.626;7.530;2023-08-12T12:16:38;23.20;99.90
13203;DHT22;6666;51.626;7.530;2023-08-12T12:19:15;23.40;99.90
13203;DHT22;6666;51.626;7.530;2023-08-12T12:21:45;23.70;99.90
13203;DHT22;6666;51.626;7.530;2023-08-12T12:24:14;23.70;99.90
13203;DHT22;6666;51.626;7.530;2023-08-12T12:26:43;23.50;99.90
13203;DHT22;6666;51.626;7.530;2023-08-12T12:29:13;23.50;99.90
13203;DHT22;6666;51.626;7.530;2023-08-12T12:31:42;23.50;99.90
13203;DHT22;6666;51.626;7.530;2023-08-12T12:34:10;23.40;99.90
13203;DHT22;6666;51.626;7.530;2023-08-12T12:36:38;23.60;99.90
13203;DHT22;6666;51.626;7.530;2023-08-12T12:39:07;24.00;99.90
13203;DHT22;6666;51.626;7.530;2023-08-12T12:41:35;24.50;99.90
13203;DHT22;6666;51.626;7.530;2023-08-12T12:44:04;24.50;99.90
13203;DHT22;6666;51.626;7.530;2023-08-12T12:46:35;24.60;99.90
13203;DHT22;6666;51.626;7.530;2023-08-12T12:49:03;24.40;99.90
13203;DHT22;6666;51.626;7.530;2023-08-12T12:51:31;24.40;99.90
13203;DHT22;6666;51.626;7.530;2023-08-12T12:53:59;24.30;99.90
13203;DHT22;6666;51.626;7.530;2023-08-12T12:56:28;24.50;99.90
13203;DHT22;6666;51.626;7.530;2023-08-12T12:58:56;24.50;99.90
13203;DHT22;6666;51.626;7.530;2023-08-12T13:01:24;24.30;99.90
13203;DHT22;6666;51.626;7.530;2023-08-12T13:03:53;24.00;99.90
13203;DHT22;6666;51.626;7.530;2023-08-12T13:06:21;23.80;99.90
13203;DHT22;6666;51.626;7.530;2023-08-12T13:08:49;23.60;99.90
13203;DHT22;6666;51.626;7.530;2023-08-12T13:12:31;23.50;99.90
13203;DHT22;6666;51.626;7.530;2023-08-12T13:15:23;23.30;99.90
13203;DHT22;6666;51.626;7.530;2023-08-12T13:17:53;23.00;99.90
13203;DHT22;6666;51.626;7.530;2023-08-12T13:20:23;22.80;99.90
13203;DHT22;6666;51.626;7.530;2023-08-12T13:22:51;22.60;99.90
13203;DHT22;6666;51.626;7.530;2023-08-12T13:25:19;22.50;99.90
13203;DHT22;6666;51.626;7.530;2023-08-12T13:27:47;22.10;99.90
13203;DHT22;6666;51.626;7.530;2023-08-12T13:30:15;21.70;99.90
13203;DHT22;6666;51.626;7.530;2023-08-12T13:32:43;21.30;99.90
13203;DHT22;6666;51.626;7.530;2023-08-12T13:35:11;21.20;99.90
13203;DHT22;6666;51.626;7.530;2023-08-12T13:37:41;21.30;99.90
13203;DHT22;6666;51.626;7.530;2023-08-12T13:40:09;21.30;99.90
13203;DHT22;6666;51.626;7.530;2023-08-12T13:42:38;21.40;99.90
13203;DHT22;6666;51.626;7.530;2023-08-12T13:45:07;21.70;99.90
13203;DHT22;6666;51.626;7.530;2023-08-12T13:47:35;21.80;99.90
13203;DHT22;6666;51.626;7.530;2023-08-12T13:50:03;21.80;99.90
13203;DHT22;6666;51.626;7.530;2023-08-12T13:52:32;21.60;99.90
13203;DHT22;6666;51.626;7.530;2023-08-12T13:55:02;21.50;99.90
13203;DHT22;6666;51.626;7.530;2023-08-12T13:57:30;21.60;99.90
13203;DHT22;6666;51.626;7.530;2023-08-12T13:59:58;21.80;99.90
13203;DHT22;6666;51.626;7.530;2023-08-12T14:02:27;21.80;99.90
13203;DHT22;6666;51.626;7.530;2023-08-12T14:04:55;21.80;99.90
13203;DHT22;6666;51.626;7.530;2023-08-12T14:07:23;21.90;99.90
13203;DHT22;6666;51.626;7.530;2023-08-12T14:09:51;21.90;99.90
13203;DHT22;6666;51.626;7.530;2023-08-12T14:12:21;22.00;99.90
13203;DHT22;6666;51.626;7.530;2023-08-12T14:14:49;22.10;99.90
13203;DHT22;6666;51.626;7.530;2023-08-12T14:17:17;22.30;99.90
13203;DHT22;6666;51.626;7.530;2023-08-12T14:19:50;22.50;99.90
13203;DHT22;6666;51.626;7.530;2023-08-12T14:22:20;22.40;99.90
13203;DHT22;6666;51.626;7.530;2023-08-12T14:24:48;22.40;99.90
13203;DHT22;6666;51.626;7.530;2023-08-12T14:27:16;22.30;99.90
13203;DHT22;6666;51.626;7.530;2023-08-12T14:29:46;22.00;99.90
13203;DHT22;6666;51.626;7.530;2023-08-12T14:32:14;21.90;99.90
13203;DHT22;6666;51.626;7.530;2023-08-12T14:34:45;21.80;99.90
13203;DHT22;6666;51.626;7.530;2023-08-12T14:37:13;21.70;99.90
13203;DHT22;6666;51.626;7.530;2023-08-12T14:39:42;21.60;99.90
13203;DHT22;6666;51.626;7.530;2023-08-12T14:42:10;21.40;99.90
13203;DHT22;6666;51.626;7.530;2023-08-12T14:44:38;21.50;99.90
13203;DHT22;6666;51.626;7.530;2023-08-12T14:47:08;21.40;99.90
13203;DHT22;6666;51.626;7.530;2023-08-12T14:49:37;21.50;99.90
13203;DHT22;6666;51.626;7.530;2023-08-12T14:52:05;21.60;99.90
13203;DHT22;6666;51.626;7.530;2023-08-12T14:54:35;21.80;99.90
13203;DHT22;6666;51.626;7.530;2023-08-12T14:57:04;22.00;99.90
13203;DHT22;6666;51.626;7.530;2023-08-12T14:59:32;22.20;99.90
13203;DHT22;6666;51.626;7.530;2023-08-12T15:02:00;22.40;99.90
13203;DHT22;6666;51.626;7.530;2023-08-12T15:04:30;22.20;99.90
13203;DHT22;6666;51.626;7.530;2023-08-12T15:06:58;22.30;99.90
13203;DHT22;6666;51.626;7.530;2023-08-12T15:09:26;22.30;99.90
13203;DHT22;6666;51.626;7.530;2023-08-12T15:11:54;22.50;99.90
13203;DHT22;6666;51.626;7.530;2023-08-12T15:14:23;22.60;99.90
13203;DHT22;6666;51.626;7.530;2023-08-12T15:16:51;22.70;99.90
13203;DHT22;6666;51.626;7.530;2023-08-12T15:19:19;22.90;99.90
13203;DHT22;6666;51.626;7.530;2023-08-12T15:21:48;22.70;99.90
13203;DHT22;6666;51.626;7.530;2023-08-12T15:24:17;22.60;99.90
13203;DHT22;6666;51.626;7.530;2023-08-12T15:26:45;22.50;99.90
13203;DHT22;6666;51.626;7.530;2023-08-12T15:29:14;22.40;99.90
13203;DHT22;6666;51.626;7.530;2023-08-12T15:31:42;22.30;99.90
13203;DHT22;6666;51.626;7.530;2023-08-12T15:34:10;22.30;99.90
13203;DHT22;6666;51.626;7.530;2023-08-12T15:36:38;22.20;99.90
13203;DHT22;6666;51.626;7.530;2023-08-12T15:39:09;22.20;99.90
13203;DHT22;6666;51.626;7.530;2023-08-12T15:41:41;22.20;99.90
13203;DHT22;6666;51.626;7.530;2023-08-12T15:44:09;22.10;99.90
13203;DHT22;6666;51.626;7.530;2023-08-12T15:46:38;22.10;99.90
13203;DHT22;6666;51.626;7.530;2023-08-12T15:49:07;22.20;99.90
13203;DHT22;6666;51.626;7.530;2023-08-12T15:51:38;22.10;99.90
13203;DHT22;6666;51.626;7.530;2023-08-12T15:54:06;22.00;99.90
13203;DHT22;6666;51.626;7.530;2023-08-12T15:56:36;22.10;99.90
13203;DHT22;6666;51.626;7.530;2023-08-12T15:59:05;22.10;99.90
13203;DHT22;6666;51.626;7.530;2023-08-12T16:01:33;22.20;99.90